sensor_id;sensor_type;location;lat;lon;timestamp;P1;durP1;ratioP1;P2;durP2;ratioP2
52294;SDS011;38243;53.212;6.574;2022-11-21T00:00:38;4.00;;;3.10;;
52294;SDS011;38243;53.212;6.574;2022-11-21T00:03:04;3.45;;;3.15;;
52294;SDS011;38243;53.212;6.574;2022-11-21T00:05:31;3.40;;;3.10;;
52294;SDS011;38243;53.212;6.574;2022-11-21T00:07:57;3.58;;;3.28;;
52294;SDS011;38243;53.212;6.574;2022-11-21T00:10:23;3.70;;;3.13;;
52294;SDS011;38243;53.212;6.574;2022-11-21T00:12:56;4.32;;;3.50;;
52294;SDS011;38243;53.212;6.574;2022-11-21T00:15:23;3.60;;;3.30;;
52294;SDS011;38243;53.212;6.574;2022-11-21T00:17:50;3.67;;;3.28;;
52294;SDS011;38243;53.212;6.574;2022-11-21T00:20:16;3.50;;;3.20;;
52294;SDS011;38243;53.212;6.574;2022-11-21T00:22:43;4.13;;;3.47;;
52294;SDS011;38243;53.212;6.574;2022-11-21T00:25:09;3.92;;;3.10;;
52294;SDS011;38243;53.212;6.574;2022-11-21T00:27:35;4.03;;;3.58;;
52294;SDS011;38243;53.212;6.574;2022-11-21T00:30:00;3.70;;;3.40;;
52294;SDS011;38243;53.212;6.574;2022-11-21T00:32:26;5.40;;;3.40;;
52294;SDS011;38243;53.212;6.574;2022-11-21T00:34:52;3.83;;;3.50;;
52294;SDS011;38243;53.212;6.574;2022-11-21T00:37:18;3.73;;;3.37;;
52294;SDS011;38243;53.212;6.574;2022-11-21T00:39:43;3.58;;;3.17;;
52294;SDS011;38243;53.212;6.574;2022-11-21T00:42:09;5.53;;;3.27;;
52294;SDS011;38243;53.212;6.574;2022-11-21T00:44:35;4.67;;;3.53;;
52294;SDS011;38243;53.212;6.574;2022-11-21T00:47:00;3.50;;;3.20;;
52294;SDS011;38243;53.212;6.574;2022-11-21T00:49:26;3.90;;;3.47;;
52294;SDS011;38243;53.212;6.574;2022-11-21T00:51:52;3.90;;;3.50;;
52294;SDS011;38243;53.212;6.574;2022-11-21T00:54:17;4.90;;;3.78;;
52294;SDS011;38243;53.212;6.574;2022-11-21T00:56:43;4.67;;;3.57;;
52294;SDS011;38243;53.212;6.574;2022-11-21T00:59:09;4.07;;;3.40;;
52294;SDS011;38243;53.212;6.574;2022-11-21T01:01:35;3.80;;;3.50;;
52294;SDS011;38243;53.212;6.574;2022-11-21T01:04:00;3.70;;;3.20;;
52294;SDS011;38243;53.212;6.574;2022-11-21T01:06:26;4.10;;;3.00;;
52294;SDS011;38243;53.212;6.574;2022-11-21T01:08:51;3.70;;;3.13;;
52294;SDS011;38243;53.212;6.574;2022-11-21T01:11:18;3.78;;;3.40;;
52294;SDS011;38243;53.212;6.574;2022-11-21T01:13:45;3.30;;;3.00;;
52294;SDS011;38243;53.212;6.574;2022-11-21T01:16:16;3.67;;;3.33;;
52294;SDS011;38243;53.212;6.574;2022-11-21T01:18:44;3.28;;;2.97;;
52294;SDS011;38243;53.212;6.574;2022-11-21T01:23:44;3.97;;;3.25;;
52294;SDS011;38243;53.212;6.574;2022-11-21T01:26:11;3.30;;;3.00;;
52294;SDS011;38243;53.212;6.574;2022-11-21T01:28:38;3.85;;;3.45;;
52294;SDS011;38243;53.212;6.574;2022-11-21T01:31:05;4.13;;;3.40;;
52294;SDS011;38243;53.212;6.574;2022-11-21T01:33:32;5.07;;;3.10;;
52294;SDS011;38243;53.212;6.574;2022-11-21T01:38:36;3.40;;;3.10;;
52294;SDS011;38243;53.212;6.574;2022-11-21T01:41:03;3.50;;;3.20;;
52294;SDS011;38243;53.212;6.574;2022-11-21T01:43:28;3.58;;;3.05;;
52294;SDS011;38243;53.212;6.574;2022-11-21T01:45:55;3.60;;;3.28;;
52294;SDS011;38243;53.212;6.574;2022-11-21T01:48:40;4.15;;;3.30;;
52294;SDS011;38243;53.212;6.574;2022-11-21T01:54:09;3.53;;;3.22;;
52294;SDS011;38243;53.212;6.574;2022-11-21T01:56:41;5.30;;;3.35;;
52294;SDS011;38243;53.212;6.574;2022-11-21T01:59:12;3.80;;;3.17;;
52294;SDS011;38243;53.212;6.574;2022-11-21T02:01:43;4.28;;;3.45;;
52294;SDS011;38243;53.212;6.574;2022-11-21T02:04:10;3.70;;;3.40;;
52294;SDS011;38243;53.212;6.574;2022-11-21T02:06:36;3.75;;;3.40;;
52294;SDS011;38243;53.212;6.574;2022-11-21T02:09:02;4.03;;;3.50;;
52294;SDS011;38243;53.212;6.574;2022-11-21T02:11:31;3.70;;;3.40;;
52294;SDS011;38243;53.212;6.574;2022-11-21T02:14:18;4.07;;;3.50;;
52294;SDS011;38243;53.212;6.574;2022-11-21T02:16:44;3.60;;;3.30;;
52294;SDS011;38243;53.212;6.574;2022-11-21T02:19:34;4.15;;;3.75;;
52294;SDS011;38243;53.212;6.574;2022-11-21T02:22:06;3.93;;;3.10;;
52294;SDS011;38243;53.212;6.574;2022-11-21T02:24:45;4.30;;;3.50;;
52294;SDS011;38243;53.212;6.574;2022-11-21T02:27:16;4.05;;;3.50;;
52294;SDS011;38243;53.212;6.574;2022-11-21T02:29:42;4.17;;;3.77;;
52294;SDS011;38243;53.212;6.574;2022-11-21T02:32:08;4.32;;;3.75;;
52294;SDS011;38243;53.212;6.574;2022-11-21T02:34:45;4.22;;;3.83;;
52294;SDS011;38243;53.212;6.574;2022-11-21T02:37:11;3.63;;;3.30;;
52294;SDS011;38243;53.212;6.574;2022-11-21T02:39:37;3.58;;;3.28;;
52294;SDS011;38243;53.212;6.574;2022-11-21T02:42:04;3.60;;;3.30;;
52294;SDS011;38243;53.212;6.574;2022-11-21T02:47:20;4.60;;;3.72;;
52294;SDS011;38243;53.212;6.574;2022-11-21T02:50:33;3.90;;;3.45;;
52294;SDS011;38243;53.212;6.574;2022-11-21T02:52:53;4.10;;;3.40;;
52294;SDS011;38243;53.212;6.574;2022-11-21T02:55:20;3.63;;;3.33;;
52294;SDS011;38243;53.212;6.574;2022-11-21T02:57:47;3.85;;;3.47;;
52294;SDS011;38243;53.212;6.574;2022-11-21T03:00:13;3.47;;;3.00;;
52294;SDS011;38243;53.212;6.574;2022-11-21T03:02:39;3.60;;;3.30;;
52294;SDS011;38243;53.212;6.574;2022-11-21T03:05:05;3.63;;;3.27;;
52294;SDS011;38243;53.212;6.574;2022-11-21T03:07:32;4.07;;;3.58;;
52294;SDS011;38243;53.212;6.574;2022-11-21T03:09:58;3.65;;;3.22;;
52294;SDS011;38243;53.212;6.574;2022-11-21T03:12:24;3.80;;;3.40;;
52294;SDS011;38243;53.212;6.574;2022-11-21T03:14:49;3.50;;;2.97;;
52294;SDS011;38243;53.212;6.574;2022-11-21T03:17:15;3.65;;;3.30;;
52294;SDS011;38243;53.212;6.574;2022-11-21T03:19:41;3.33;;;3.03;;
52294;SDS011;38243;53.212;6.574;2022-11-21T03:22:07;3.67;;;3.23;;
52294;SDS011;38243;53.212;6.574;2022-11-21T03:24:33;3.92;;;3.20;;
52294;SDS011;38243;53.212;6.574;2022-11-21T03:26:59;3.58;;;3.25;;
52294;SDS011;38243;53.212;6.574;2022-11-21T03:29:25;3.85;;;3.55;;
52294;SDS011;38243;53.212;6.574;2022-11-21T03:31:50;3.30;;;3.00;;
52294;SDS011;38243;53.212;6.574;2022-11-21T03:34:16;3.73;;;3.43;;
52294;SDS011;38243;53.212;6.574;2022-11-21T03:36:42;4.05;;;3.25;;
52294;SDS011;38243;53.212;6.574;2022-11-21T03:39:08;3.70;;;3.35;;
52294;SDS011;38243;53.212;6.574;2022-11-21T03:41:34;3.78;;;2.90;;
52294;SDS011;38243;53.212;6.574;2022-11-21T03:44:00;3.33;;;3.03;;
52294;SDS011;38243;53.212;6.574;2022-11-21T03:46:29;3.88;;;3.30;;
52294;SDS011;38243;53.212;6.574;2022-11-21T03:48:56;3.30;;;3.00;;
52294;SDS011;38243;53.212;6.574;2022-11-21T03:51:27;3.33;;;3.03;;
52294;SDS011;38243;53.212;6.574;2022-11-21T03:53:54;4.00;;;3.50;;
52294;SDS011;38243;53.212;6.574;2022-11-21T03:56:22;3.95;;;3.55;;
52294;SDS011;38243;53.212;6.574;2022-11-21T03:58:53;4.22;;;3.83;;
52294;SDS011;38243;53.212;6.574;2022-11-21T04:01:20;4.40;;;3.90;;
52294;SDS011;38243;53.212;6.574;2022-11-21T04:03:49;4.68;;;3.67;;
52294;SDS011;38243;53.212;6.574;2022-11-21T04:06:16;7.83;;;3.77;;
52294;SDS011;38243;53.212;6.574;2022-11-21T04:08:46;4.28;;;3.30;;
52294;SDS011;38243;53.212;6.574;2022-11-21T04:11:20;4.50;;;4.10;;
52294;SDS011;38243;53.212;6.574;2022-11-21T04:13:49;4.45;;;3.38;;
52294;SDS011;38243;53.212;6.574;2022-11-21T04:16:15;5.85;;;3.38;;
52294;SDS011;38243;53.212;6.574;2022-11-21T04:18:41;4.40;;;3.75;;
52294;SDS011;38243;53.212;6.574;2022-11-21T04:21:10;3.72;;;3.33;;
52294;SDS011;38243;53.212;6.574;2022-11-21T04:23:36;4.00;;;3.43;;
52294;SDS011;38243;53.212;6.574;2022-11-21T04:26:02;4.35;;;3.55;;
52294;SDS011;38243;53.212;6.574;2022-11-21T04:28:28;4.72;;;3.90;;
52294;SDS011;38243;53.212;6.574;2022-11-21T04:31:01;4.90;;;4.00;;
52294;SDS011;38243;53.212;6.574;2022-11-21T04:33:31;5.15;;;4.35;;
52294;SDS011;38243;53.212;6.574;2022-11-21T04:36:05;4.97;;;4.10;;
52294;SDS011;38243;53.212;6.574;2022-11-21T04:38:31;4.65;;;4.18;;
52294;SDS011;38243;53.212;6.574;2022-11-21T04:41:00;4.50;;;4.10;;
52294;SDS011;38243;53.212;6.574;2022-11-21T04:43:31;4.68;;;4.20;;
52294;SDS011;38243;53.212;6.574;2022-11-21T04:46:02;3.30;;;3.00;;
52294;SDS011;38243;53.212;6.574;2022-11-21T04:48:31;3.55;;;3.08;;
52294;SDS011;38243;53.212;6.574;2022-11-21T04:50:56;4.80;;;3.75;;
52294;SDS011;38243;53.212;6.574;2022-11-21T04:53:27;4.93;;;4.22;;
52294;SDS011;38243;53.212;6.574;2022-11-21T04:56:04;4.50;;;4.03;;
52294;SDS011;38243;53.212;6.574;2022-11-21T04:58:31;4.20;;;3.50;;
52294;SDS011;38243;53.212;6.574;2022-11-21T05:01:09;4.32;;;3.83;;
52294;SDS011;38243;53.212;6.574;2022-11-21T05:03:43;4.57;;;4.03;;
52294;SDS011;38243;53.212;6.574;2022-11-21T05:06:14;5.50;;;4.60;;
52294;SDS011;38243;53.212;6.574;2022-11-21T05:08:43;4.57;;;4.13;;
52294;SDS011;38243;53.212;6.574;2022-11-21T05:11:11;4.03;;;3.63;;
52294;SDS011;38243;53.212;6.574;2022-11-21T05:14:09;3.97;;;3.58;;
52294;SDS011;38243;53.212;6.574;2022-11-21T05:16:37;4.10;;;3.70;;
52294;SDS011;38243;53.212;6.574;2022-11-21T05:19:05;4.67;;;3.90;;
52294;SDS011;38243;53.212;6.574;2022-11-21T05:21:32;4.10;;;3.70;;
52294;SDS011;38243;53.212;6.574;2022-11-21T05:23:58;3.95;;;3.55;;
52294;SDS011;38243;53.212;6.574;2022-11-21T05:26:26;4.40;;;3.78;;
52294;SDS011;38243;53.212;6.574;2022-11-21T05:28:52;4.00;;;3.17;;
52294;SDS011;38243;53.212;6.574;2022-11-21T05:31:21;4.13;;;3.60;;
52294;SDS011;38243;53.212;6.574;2022-11-21T05:33:47;4.10;;;3.70;;
52294;SDS011;38243;53.212;6.574;2022-11-21T05:36:13;4.55;;;3.95;;
52294;SDS011;38243;53.212;6.574;2022-11-21T05:38:39;3.92;;;3.50;;
52294;SDS011;38243;53.212;6.574;2022-11-21T05:41:04;3.70;;;3.07;;
52294;SDS011;38243;53.212;6.574;2022-11-21T05:43:30;3.73;;;3.20;;
52294;SDS011;38243;53.212;6.574;2022-11-21T05:46:15;3.70;;;3.40;;
52294;SDS011;38243;53.212;6.574;2022-11-21T05:48:43;3.73;;;3.37;;
52294;SDS011;38243;53.212;6.574;2022-11-21T05:51:09;4.45;;;3.90;;
52294;SDS011;38243;53.212;6.574;2022-11-21T05:53:36;4.50;;;3.30;;
52294;SDS011;38243;53.212;6.574;2022-11-21T05:56:08;3.67;;;3.33;;
52294;SDS011;38243;53.212;6.574;2022-11-21T05:58:36;3.92;;;3.55;;
52294;SDS011;38243;53.212;6.574;2022-11-21T06:01:03;3.70;;;3.40;;
52294;SDS011;38243;53.212;6.574;2022-11-21T06:03:33;4.20;;;3.80;;
52294;SDS011;38243;53.212;6.574;2022-11-21T06:06:03;4.65;;;4.03;;
52294;SDS011;38243;53.212;6.574;2022-11-21T06:08:35;4.53;;;4.13;;
52294;SDS011;38243;53.212;6.574;2022-11-21T06:11:09;4.63;;;4.03;;
52294;SDS011;38243;53.212;6.574;2022-11-21T06:13:37;4.40;;;3.85;;
52294;SDS011;38243;53.212;6.574;2022-11-21T06:18:32;3.85;;;3.47;;
52294;SDS011;38243;53.212;6.574;2022-11-21T06:21:07;5.20;;;4.40;;
52294;SDS011;38243;53.212;6.574;2022-11-21T06:23:36;6.40;;;3.65;;
52294;SDS011;38243;53.212;6.574;2022-11-21T06:26:03;5.85;;;3.80;;
52294;SDS011;38243;53.212;6.574;2022-11-21T06:28:31;4.47;;;4.00;;
52294;SDS011;38243;53.212;6.574;2022-11-21T06:31:08;5.50;;;2.77;;
52294;SDS011;38243;53.212;6.574;2022-11-21T06:33:35;6.00;;;3.20;;
52294;SDS011;38243;53.212;6.574;2022-11-21T06:36:04;7.87;;;4.27;;
52294;SDS011;38243;53.212;6.574;2022-11-21T06:38:41;6.82;;;5.07;;
52294;SDS011;38243;53.212;6.574;2022-11-21T06:41:11;9.18;;;6.15;;
52294;SDS011;38243;53.212;6.574;2022-11-21T06:43:42;9.32;;;7.20;;
52294;SDS011;38243;53.212;6.574;2022-11-21T06:46:08;8.38;;;6.50;;
52294;SDS011;38243;53.212;6.574;2022-11-21T06:48:35;7.75;;;6.28;;
52294;SDS011;38243;53.212;6.574;2022-11-21T06:51:10;7.13;;;5.78;;
52294;SDS011;38243;53.212;6.574;2022-11-21T06:53:40;8.70;;;6.22;;
52294;SDS011;38243;53.212;6.574;2022-11-21T06:56:06;6.03;;;5.17;;
52294;SDS011;38243;53.212;6.574;2022-11-21T06:58:31;7.63;;;5.15;;
52294;SDS011;38243;53.212;6.574;2022-11-21T07:01:02;5.72;;;4.60;;
52294;SDS011;38243;53.212;6.574;2022-11-21T07:03:29;6.45;;;5.30;;
52294;SDS011;38243;53.212;6.574;2022-11-21T07:05:55;6.83;;;5.10;;
52294;SDS011;38243;53.212;6.574;2022-11-21T07:08:24;6.20;;;5.00;;
52294;SDS011;38243;53.212;6.574;2022-11-21T07:10:51;6.05;;;4.63;;
52294;SDS011;38243;53.212;6.574;2022-11-21T07:13:17;7.57;;;4.45;;
52294;SDS011;38243;53.212;6.574;2022-11-21T07:15:46;6.45;;;4.20;;
52294;SDS011;38243;53.212;6.574;2022-11-21T07:18:13;4.33;;;3.73;;
52294;SDS011;38243;53.212;6.574;2022-11-21T07:20:39;4.70;;;4.20;;
52294;SDS011;38243;53.212;6.574;2022-11-21T07:23:06;4.72;;;4.25;;
52294;SDS011;38243;53.212;6.574;2022-11-21T07:25:32;5.93;;;4.10;;
52294;SDS011;38243;53.212;6.574;2022-11-21T07:27:58;5.20;;;4.40;;
52294;SDS011;38243;53.212;6.574;2022-11-21T07:30:25;6.83;;;3.93;;
52294;SDS011;38243;53.212;6.574;2022-11-21T07:32:54;4.75;;;3.65;;
52294;SDS011;38243;53.212;6.574;2022-11-21T07:35:21;4.68;;;3.92;;
52294;SDS011;38243;53.212;6.574;2022-11-21T07:37:46;4.20;;;3.67;;
52294;SDS011;38243;53.212;6.574;2022-11-21T07:40:12;6.80;;;4.40;;
52294;SDS011;38243;53.212;6.574;2022-11-21T07:42:38;4.75;;;4.07;;
52294;SDS011;38243;53.212;6.574;2022-11-21T07:45:04;6.35;;;5.35;;
52294;SDS011;38243;53.212;6.574;2022-11-21T07:47:30;5.53;;;4.60;;
52294;SDS011;38243;53.212;6.574;2022-11-21T07:49:55;6.87;;;4.97;;
52294;SDS011;38243;53.212;6.574;2022-11-21T07:52:21;6.53;;;4.57;;
52294;SDS011;38243;53.212;6.574;2022-11-21T07:54:47;5.28;;;4.78;;
52294;SDS011;38243;53.212;6.574;2022-11-21T07:57:12;5.87;;;4.30;;
52294;SDS011;38243;53.212;6.574;2022-11-21T07:59:38;5.55;;;3.83;;
52294;SDS011;38243;53.212;6.574;2022-11-21T08:02:04;4.47;;;3.53;;
52294;SDS011;38243;53.212;6.574;2022-11-21T08:04:30;5.75;;;4.47;;
52294;SDS011;38243;53.212;6.574;2022-11-21T08:06:55;4.95;;;3.70;;
52294;SDS011;38243;53.212;6.574;2022-11-21T08:09:21;5.97;;;3.67;;
52294;SDS011;38243;53.212;6.574;2022-11-21T08:11:47;5.28;;;4.13;;
52294;SDS011;38243;53.212;6.574;2022-11-21T08:14:12;4.13;;;3.50;;
52294;SDS011;38243;53.212;6.574;2022-11-21T08:16:38;4.15;;;3.75;;
52294;SDS011;38243;53.212;6.574;2022-11-21T08:19:04;4.13;;;3.72;;
52294;SDS011;38243;53.212;6.574;2022-11-21T08:21:30;4.03;;;3.50;;
52294;SDS011;38243;53.212;6.574;2022-11-21T08:23:56;4.85;;;3.50;;
52294;SDS011;38243;53.212;6.574;2022-11-21T08:26:22;4.17;;;3.20;;
52294;SDS011;38243;53.212;6.574;2022-11-21T08:28:47;3.83;;;3.42;;
52294;SDS011;38243;53.212;6.574;2022-11-21T08:31:13;4.60;;;4.10;;
52294;SDS011;38243;53.212;6.574;2022-11-21T08:33:39;5.23;;;3.40;;
52294;SDS011;38243;53.212;6.574;2022-11-21T08:36:05;13.48;;;4.65;;
52294;SDS011;38243;53.212;6.574;2022-11-21T08:38:31;11.20;;;4.38;;
52294;SDS011;38243;53.212;6.574;2022-11-21T08:40:58;9.00;;;4.57;;
52294;SDS011;38243;53.212;6.574;2022-11-21T08:43:42;11.98;;;4.15;;
52294;SDS011;38243;53.212;6.574;2022-11-21T08:46:08;8.23;;;3.45;;
52294;SDS011;38243;53.212;6.574;2022-11-21T08:48:34;9.55;;;4.25;;
52294;SDS011;38243;53.212;6.574;2022-11-21T08:50:59;9.63;;;3.80;;
52294;SDS011;38243;53.212;6.574;2022-11-21T08:53:25;6.57;;;3.90;;
52294;SDS011;38243;53.212;6.574;2022-11-21T08:55:52;7.87;;;4.23;;
52294;SDS011;38243;53.212;6.574;2022-11-21T08:58:18;11.68;;;4.80;;
52294;SDS011;38243;53.212;6.574;2022-11-21T09:00:44;6.87;;;4.33;;
52294;SDS011;38243;53.212;6.574;2022-11-21T09:03:10;9.13;;;5.53;;
52294;SDS011;38243;53.212;6.574;2022-11-21T09:05:36;6.95;;;5.30;;
52294;SDS011;38243;53.212;6.574;2022-11-21T09:08:01;6.77;;;4.67;;
52294;SDS011;38243;53.212;6.574;2022-11-21T09:10:27;7.53;;;4.40;;
52294;SDS011;38243;53.212;6.574;2022-11-21T09:12:56;7.50;;;5.07;;
52294;SDS011;38243;53.212;6.574;2022-11-21T09:15:23;6.07;;;4.85;;
52294;SDS011;38243;53.212;6.574;2022-11-21T09:18:09;5.95;;;4.20;;
52294;SDS011;38243;53.212;6.574;2022-11-21T09:20:39;8.00;;;5.73;;
52294;SDS011;38243;53.212;6.574;2022-11-21T09:23:06;8.05;;;5.07;;
52294;SDS011;38243;53.212;6.574;2022-11-21T09:25:34;7.63;;;4.50;;
52294;SDS011;38243;53.212;6.574;2022-11-21T09:28:03;8.27;;;4.60;;
52294;SDS011;38243;53.212;6.574;2022-11-21T09:30:31;7.17;;;4.73;;
52294;SDS011;38243;53.212;6.574;2022-11-21T09:33:04;7.28;;;5.07;;
52294;SDS011;38243;53.212;6.574;2022-11-21T09:35:31;4.70;;;4.20;;
52294;SDS011;38243;53.212;6.574;2022-11-21T09:37:57;6.70;;;4.80;;
52294;SDS011;38243;53.212;6.574;2022-11-21T09:40:23;7.07;;;5.07;;
52294;SDS011;38243;53.212;6.574;2022-11-21T09:45:18;5.03;;;4.38;;
52294;SDS011;38243;53.212;6.574;2022-11-21T09:47:58;5.82;;;4.68;;
52294;SDS011;38243;53.212;6.574;2022-11-21T09:50:35;6.72;;;4.43;;
52294;SDS011;38243;53.212;6.574;2022-11-21T09:53:09;4.53;;;3.80;;
52294;SDS011;38243;53.212;6.574;2022-11-21T09:55:45;5.10;;;4.53;;
52294;SDS011;38243;53.212;6.574;2022-11-21T09:58:29;6.63;;;5.15;;
52294;SDS011;38243;53.212;6.574;2022-11-21T10:01:01;4.28;;;3.78;;
52294;SDS011;38243;53.212;6.574;2022-11-21T10:03:31;5.25;;;4.78;;
52294;SDS011;38243;53.212;6.574;2022-11-21T10:06:21;4.93;;;4.43;;
52294;SDS011;38243;53.212;6.574;2022-11-21T10:14:44;4.97;;;4.35;;
52294;SDS011;38243;53.212;6.574;2022-11-21T10:26:06;5.30;;;4.65;;
52294;SDS011;38243;53.212;6.574;2022-11-21T10:31:25;5.55;;;4.70;;
52294;SDS011;38243;53.212;6.574;2022-11-21T10:33:55;4.60;;;4.20;;
52294;SDS011;38243;53.212;6.574;2022-11-21T10:39:02;4.47;;;3.90;;
52294;SDS011;38243;53.212;6.574;2022-11-21T10:42:37;4.90;;;4.25;;
52294;SDS011;38243;53.212;6.574;2022-11-21T10:44:36;4.95;;;4.00;;
52294;SDS011;38243;53.212;6.574;2022-11-21T10:52:37;4.25;;;3.85;;
52294;SDS011;38243;53.212;6.574;2022-11-21T10:55:10;4.27;;;3.87;;
52294;SDS011;38243;53.212;6.574;2022-11-21T11:00:15;4.53;;;3.80;;
52294;SDS011;38243;53.212;6.574;2022-11-21T11:05:28;3.78;;;3.47;;
52294;SDS011;38243;53.212;6.574;2022-11-21T11:08:09;4.63;;;4.22;;
52294;SDS011;38243;53.212;6.574;2022-11-21T11:10:37;5.75;;;3.92;;
52294;SDS011;38243;53.212;6.574;2022-11-21T11:13:17;5.18;;;4.30;;
52294;SDS011;38243;53.212;6.574;2022-11-21T11:18:23;5.60;;;3.88;;
52294;SDS011;38243;53.212;6.574;2022-11-21T11:20:50;4.72;;;3.40;;
52294;SDS011;38243;53.212;6.574;2022-11-21T11:25:48;2.60;;;2.40;;
52294;SDS011;38243;53.212;6.574;2022-11-21T11:28:16;3.38;;;3.05;;
52294;SDS011;38243;53.212;6.574;2022-11-21T11:30:43;4.05;;;3.30;;
52294;SDS011;38243;53.212;6.574;2022-11-21T11:33:33;3.55;;;3.25;;
52294;SDS011;38243;53.212;6.574;2022-11-21T11:38:32;3.17;;;2.88;;
52294;SDS011;38243;53.212;6.574;2022-11-21T11:40:59;2.90;;;2.70;;
52294;SDS011;38243;53.212;6.574;2022-11-21T11:49:17;3.17;;;2.90;;
52294;SDS011;38243;53.212;6.574;2022-11-21T11:51:52;2.65;;;2.45;;
52294;SDS011;38243;53.212;6.574;2022-11-21T11:54:28;3.55;;;3.25;;
52294;SDS011;38243;53.212;6.574;2022-11-21T11:56:59;3.40;;;3.10;;
52294;SDS011;38243;53.212;6.574;2022-11-21T11:59:36;3.63;;;3.33;;
52294;SDS011;38243;53.212;6.574;2022-11-21T12:02:09;2.90;;;2.60;;
52294;SDS011;38243;53.212;6.574;2022-11-21T12:04:56;2.95;;;2.58;;
52294;SDS011;38243;53.212;6.574;2022-11-21T12:09:58;3.80;;;3.37;;
52294;SDS011;38243;53.212;6.574;2022-11-21T12:12:37;3.20;;;2.90;;
52294;SDS011;38243;53.212;6.574;2022-11-21T12:23:26;3.47;;;3.10;;
52294;SDS011;38243;53.212;6.574;2022-11-21T12:33:54;3.80;;;3.40;;
52294;SDS011;38243;53.212;6.574;2022-11-21T12:41:46;5.72;;;3.85;;
52294;SDS011;38243;53.212;6.574;2022-11-21T12:54:27;5.78;;;3.78;;
52294;SDS011;38243;53.212;6.574;2022-11-21T12:57:14;4.03;;;3.63;;
52294;SDS011;38243;53.212;6.574;2022-11-21T13:00:06;4.10;;;3.70;;
52294;SDS011;38243;53.212;6.574;2022-11-21T13:02:52;4.15;;;3.75;;
52294;SDS011;38243;53.212;6.574;2022-11-21T13:05:45;4.55;;;3.95;;
52294;SDS011;38243;53.212;6.574;2022-11-21T13:08:16;4.07;;;3.70;;
52294;SDS011;38243;53.212;6.574;2022-11-21T13:16:44;5.03;;;4.20;;
52294;SDS011;38243;53.212;6.574;2022-11-21T13:21:44;4.75;;;4.25;;
52294;SDS011;38243;53.212;6.574;2022-11-21T13:32:41;5.15;;;4.32;;
52294;SDS011;38243;53.212;6.574;2022-11-21T13:45:46;5.78;;;3.42;;
52294;SDS011;38243;53.212;6.574;2022-11-21T13:51:12;4.40;;;4.00;;
52294;SDS011;38243;53.212;6.574;2022-11-21T13:57:01;4.33;;;3.93;;
52294;SDS011;38243;53.212;6.574;2022-11-21T13:59:55;4.50;;;4.10;;
52294;SDS011;38243;53.212;6.574;2022-11-21T14:08:41;4.63;;;3.85;;
52294;SDS011;38243;53.212;6.574;2022-11-21T14:11:25;4.75;;;3.88;;
52294;SDS011;38243;53.212;6.574;2022-11-21T14:14:00;4.50;;;4.10;;
52294;SDS011;38243;53.212;6.574;2022-11-21T14:16:30;4.85;;;3.92;;
52294;SDS011;38243;53.212;6.574;2022-11-21T14:19:05;3.83;;;3.50;;
52294;SDS011;38243;53.212;6.574;2022-11-21T14:21:43;4.43;;;3.95;;
52294;SDS011;38243;53.212;6.574;2022-11-21T14:24:15;5.05;;;3.80;;
52294;SDS011;38243;53.212;6.574;2022-11-21T14:26:43;4.30;;;3.90;;
52294;SDS011;38243;53.212;6.574;2022-11-21T14:31:51;4.45;;;3.90;;
52294;SDS011;38243;53.212;6.574;2022-11-21T14:34:23;4.00;;;3.60;;
52294;SDS011;38243;53.212;6.574;2022-11-21T14:36:53;4.43;;;4.03;;
52294;SDS011;38243;53.212;6.574;2022-11-21T14:39:23;4.43;;;4.03;;
52294;SDS011;38243;53.212;6.574;2022-11-21T14:41:51;4.35;;;3.60;;
52294;SDS011;38243;53.212;6.574;2022-11-21T14:44:21;4.43;;;4.03;;
52294;SDS011;38243;53.212;6.574;2022-11-21T14:46:47;4.68;;;4.28;;
52294;SDS011;38243;53.212;6.574;2022-11-21T14:51:40;4.70;;;4.13;;
52294;SDS011;38243;53.212;6.574;2022-11-21T14:54:16;4.45;;;4.03;;
52294;SDS011;38243;53.212;6.574;2022-11-21T14:56:47;5.15;;;4.60;;
52294;SDS011;38243;53.212;6.574;2022-11-21T14:59:23;4.28;;;3.75;;
52294;SDS011;38243;53.212;6.574;2022-11-21T15:02:00;5.53;;;4.32;;
52294;SDS011;38243;53.212;6.574;2022-11-21T15:04:34;5.03;;;4.45;;
52294;SDS011;38243;53.212;6.574;2022-11-21T15:07:01;4.35;;;3.95;;
52294;SDS011;38243;53.212;6.574;2022-11-21T15:09:27;4.35;;;3.95;;
52294;SDS011;38243;53.212;6.574;2022-11-21T15:12:00;4.30;;;3.90;;
52294;SDS011;38243;53.212;6.574;2022-11-21T15:14:37;5.15;;;4.53;;
52294;SDS011;38243;53.212;6.574;2022-11-21T15:17:10;5.22;;;4.72;;
52294;SDS011;38243;53.212;6.574;2022-11-21T15:19:39;5.00;;;4.50;;
52294;SDS011;38243;53.212;6.574;2022-11-21T15:22:14;5.30;;;4.72;;
52294;SDS011;38243;53.212;6.574;2022-11-21T15:25:03;5.85;;;5.15;;
52294;SDS011;38243;53.212;6.574;2022-11-21T15:27:41;5.65;;;5.10;;
52294;SDS011;38243;53.212;6.574;2022-11-21T15:38:15;12.65;;;6.07;;
52294;SDS011;38243;53.212;6.574;2022-11-21T15:41:08;9.77;;;5.57;;
52294;SDS011;38243;53.212;6.574;2022-11-21T15:43:50;13.82;;;6.32;;
52294;SDS011;38243;53.212;6.574;2022-11-21T15:46:22;11.20;;;6.10;;
52294;SDS011;38243;53.212;6.574;2022-11-21T15:51:48;8.23;;;5.85;;
52294;SDS011;38243;53.212;6.574;2022-11-21T15:54:21;9.48;;;6.25;;
52294;SDS011;38243;53.212;6.574;2022-11-21T15:56:56;11.45;;;7.90;;
52294;SDS011;38243;53.212;6.574;2022-11-21T15:59:24;11.70;;;8.70;;
52294;SDS011;38243;53.212;6.574;2022-11-21T16:01:50;9.23;;;6.78;;
52294;SDS011;38243;53.212;6.574;2022-11-21T16:04:26;7.43;;;5.83;;
52294;SDS011;38243;53.212;6.574;2022-11-21T16:06:58;9.20;;;6.93;;
52294;SDS011;38243;53.212;6.574;2022-11-21T16:09:26;11.20;;;6.97;;
52294;SDS011;38243;53.212;6.574;2022-11-21T16:11:56;9.55;;;6.07;;
52294;SDS011;38243;53.212;6.574;2022-11-21T16:14:33;8.15;;;5.55;;
52294;SDS011;38243;53.212;6.574;2022-11-21T16:17:15;8.60;;;7.43;;
52294;SDS011;38243;53.212;6.574;2022-11-21T16:19:52;9.98;;;7.43;;
52294;SDS011;38243;53.212;6.574;2022-11-21T16:22:30;7.95;;;6.43;;
52294;SDS011;38243;53.212;6.574;2022-11-21T16:24:56;8.85;;;6.80;;
52294;SDS011;38243;53.212;6.574;2022-11-21T16:27:31;7.78;;;6.35;;
52294;SDS011;38243;53.212;6.574;2022-11-21T16:30:00;9.32;;;7.07;;
52294;SDS011;38243;53.212;6.574;2022-11-21T16:32:38;10.17;;;7.47;;
52294;SDS011;38243;53.212;6.574;2022-11-21T16:35:12;8.17;;;6.17;;
52294;SDS011;38243;53.212;6.574;2022-11-21T16:38:02;11.05;;;7.63;;
52294;SDS011;38243;53.212;6.574;2022-11-21T16:40:59;9.65;;;7.53;;
52294;SDS011;38243;53.212;6.574;2022-11-21T16:46:32;9.63;;;7.70;;
52294;SDS011;38243;53.212;6.574;2022-11-21T16:49:01;9.38;;;7.30;;
52294;SDS011;38243;53.212;6.574;2022-11-21T16:51:29;8.35;;;6.65;;
52294;SDS011;38243;53.212;6.574;2022-11-21T16:54:03;7.60;;;6.35;;
52294;SDS011;38243;53.212;6.574;2022-11-21T16:56:29;9.17;;;7.20;;
52294;SDS011;38243;53.212;6.574;2022-11-21T16:58:55;9.13;;;6.72;;
52294;SDS011;38243;53.212;6.574;2022-11-21T17:01:22;8.93;;;7.27;;
52294;SDS011;38243;53.212;6.574;2022-11-21T17:03:58;8.43;;;6.70;;
52294;SDS011;38243;53.212;6.574;2022-11-21T17:06:28;10.50;;;8.45;;
52294;SDS011;38243;53.212;6.574;2022-11-21T17:08:59;9.82;;;6.55;;
52294;SDS011;38243;53.212;6.574;2022-11-21T17:14:45;7.03;;;6.20;;
52294;SDS011;38243;53.212;6.574;2022-11-21T17:17:26;9.25;;;6.90;;
52294;SDS011;38243;53.212;6.574;2022-11-21T17:20:00;8.60;;;6.85;;
52294;SDS011;38243;53.212;6.574;2022-11-21T17:22:34;9.73;;;7.60;;
52294;SDS011;38243;53.212;6.574;2022-11-21T17:25:10;11.13;;;8.43;;
52294;SDS011;38243;53.212;6.574;2022-11-21T17:31:01;9.95;;;8.32;;
52294;SDS011;38243;53.212;6.574;2022-11-21T17:33:36;10.73;;;7.85;;
52294;SDS011;38243;53.212;6.574;2022-11-21T17:36:23;11.10;;;8.55;;
52294;SDS011;38243;53.212;6.574;2022-11-21T17:39:03;10.50;;;7.68;;
52294;SDS011;38243;53.212;6.574;2022-11-21T17:41:53;13.15;;;9.40;;
52294;SDS011;38243;53.212;6.574;2022-11-21T17:44:28;9.40;;;7.03;;
52294;SDS011;38243;53.212;6.574;2022-11-21T17:46:54;7.32;;;5.88;;